Terminal Aerodrome Forecast
Issued by NWS Albuquerque, NM

Home | Current Version | Previous Version | Text Only | Print | Product List | Glossary On
Versions: 1 2 3 4 5 6 7 8 9 10 11 12 13 14 15
924
FTUS45 KABQ 270522
TAFABQ
TAF
KABQ 270522Z 2706/2806 13010KT P6SM VCSH SCT100 BKN150
     FM270800 01007KT P6SM FEW100 SCT150
     FM272300 05010KT P6SM SCT100 BKN150
     FM280100 10015KT P6SM VCSH BKN100
     FM280400 12008KT P6SM FEW150=

USA.gov is the U.S. government's official web portal to all federal, state and local government web resources and services.